新潟空港の過去48時間の天気

新潟空港 (Niigata)

現在時刻: 6/3 22:15 JST (6/3 13:15 UTC) 以下の時間は現地時間です。

過去48時間のMETAR気象情報
時間 風向 風速(m/s) 視程 気温(℃) 湿度(%) 気圧(hPa) 天気現象
3 21:00 2 10km以上 20 78 1005
3 20:00 1 10km以上 20 88 1005
3 19:00 北北東 1 10km以上 21 88 1005
3 18:00 北北西 3 10km以上 21 83 1005
3 17:00 3 10km以上 22 83 1005
3 16:00 北西 3 10km以上 25 57 1005
3 15:00 北西 4 10km以上 24 69 1005
3 14:00 北西 4 10km以上 22 83 1005
3 13:00 西北西 5 10km以上 22 83 1005
3 12:00 北西 4 10km以上 22 78 1005
3 11:00 北西 4 10km以上 23 78 1006
3 10:00 3 10km以上 23 69 1006
3 09:00 2 10km以上 22 73 1006
3 08:00 3 10km以上 22 69 1006
3 07:00 南南東 4 10km以上 21 78 1006
3 06:10 2 10km以上 19 94 1006
2 21:00 南西 2 10km以上 21 83 1008
2 20:00 西 4 10km以上 21 83 1007
2 19:00 西 3 10km以上 21 83 1007
2 18:00 西北西 4 10km以上 21 83 1006
2 17:00 西北西 3 10km以上 21 83 1006
2 16:00 北西 3 10km以上 23 69 1006
2 15:00 西北西 5 10km以上 23 78 1007
2 14:00 西南西 5 10km以上 26 45 1007
2 13:00 西 6 10km以上 25 61 1007
2 12:00 西 7 10km以上 23 69 1008
2 11:00 西 7 10km以上 23 73 1008
2 10:00 西 7 10km以上 22 73 1008
2 09:00 南西 5 10km以上 22 73 1008
2 08:00 6 10km以上 21 83 1008
2 07:00 5 10km以上 19 94 1008
2 06:10 5 10km以上 19 88 1008
RJSN 031200Z 08003KT 040V100 CAVOK 20/16 Q1005
RJSN 031100Z 01001KT CAVOK 20/18 Q1005
RJSN 031000Z 02002KT CAVOK 21/19 Q1005
RJSN 030900Z 34005KT CAVOK 21/18 Q1005
RJSN 030800Z 35005KT 320V030 CAVOK 22/19 Q1005
RJSN 030700Z 31006KT 9999 FEW040 BKN/// 25/16 Q1005
RJSN 030600Z 31008KT 9999 FEW030 BKN/// 24/18 Q1005
RJSN 030500Z 31008KT 9999 FEW030 SCT100 BKN/// 22/19 Q1005
RJSN 030400Z 29009KT 9999 FEW050 BKN100 22/19 Q1005
RJSN 030300Z 31008KT 9999 FEW040 BKN100 BKN/// 22/18 Q1005
RJSN 030200Z 31007KT 9999 FEW040 BKN/// 23/19 Q1006
RJSN 030100Z 36006KT 9999 FEW050 BKN/// 23/17 Q1006
RJSN 030000Z 35004KT 320V030 9999 FEW050 SCT150 22/17 Q1006
RJSN 022300Z 17005KT 130V210 9999 FEW070 SCT150 22/16 Q1006
RJSN 022200Z 15007KT 9999 FEW070 21/17 Q1006
RJSN 022110Z 09003KT 9999 FEW030 SCT/// 19/18 Q1006 RMK 1CU030 A2973
RJSN 021200Z 23004KT 190V270 9999 FEW040 BKN070 BKN/// 21/18 Q1008
RJSN 021100Z 28007KT 9999 FEW040 BKN070 BKN/// 21/18 Q1007
RJSN 021000Z 28005KT 9999 FEW040 BKN070 BKN/// 21/18 Q1007
RJSN 020900Z 29007KT 9999 FEW040 SCT180 BKN/// 21/18 Q1006
RJSN 020800Z 30006KT 9999 FEW040 BKN/// 21/18 Q1006
RJSN 020700Z 31005KT 9999 FEW040 BKN/// 23/17 Q1006
RJSN 020600Z 29010KT 9999 FEW040 SCT/// 23/19 Q1007
RJSN 020500Z 24009KT 210V290 9999 FEW040 SCT/// 26/13 Q1007
RJSN 020400Z 27012KT 9999 FEW040 SCT/// 25/17 Q1007
RJSN 020300Z 27013KT 9999 FEW040 SCT090 23/17 Q1008
RJSN 020200Z 27013KT 9999 FEW040 SCT090 23/18 Q1008
RJSN 020100Z 27013KT 9999 FEW040 SCT080 22/17 Q1008
RJSN 020000Z 22010KT 190V250 9999 FEW020 SCT030 22/17 Q1008
RJSN 012300Z 19012KT 9999 FEW010 SCT080 21/18 Q1008
RJSN 012200Z 19010KT 9999 FEW010 SCT030 BKN070 19/18 Q1008
RJSN 012110Z 19009KT 9999 FEW008 SCT030 BKN040 19/17 Q1008 RMK 2ST008 4CU030 6CU040 A2977